Time;durP1;ratioP1;P1;durP2;ratioP2;P2;SDS_P1;SDS_P2;PMS_P1;PMS_P2;Temp;Humidity;BMP_temperature;BMP_pressure;BME280_temperature;BME280_humidity;BME280_pressure;Samples;Min_cycle;Max_cycle;Signal;HPM_P1;HPM_P2
2023/01/21 00:02:13;;;;;;;50.63;22.47;;;;;;;;;;4989800;28;20741;-76
2023/01/21 00:04:41;;;;;;;57.97;23.73;;;;;;;;;;4987796;28;20038;-77
2023/01/21 00:07:07;;;;;;;55.37;23.97;;;;;;;;;;4974253;28;20285;-76
2023/01/21 00:09:34;;;;;;;57.73;24.10;;;;;;;;;;4977264;28;20427;-76
2023/01/21 00:12:01;;;;;;;52.47;24.57;;;;;;;;;;4974504;28;20348;-77
2023/01/21 00:14:31;;;;;;;54.87;24.73;;;;;;;;;;4991696;28;20277;-77
2023/01/21 00:17:00;;;;;;;52.90;23.40;;;;;;;;;;4988193;28;20331;-76
2023/01/21 00:19:27;;;;;;;57.87;24.77;;;;;;;;;;4973925;28;20277;-75
2023/01/21 00:21:53;;;;;;;55.77;23.63;;;;;;;;;;4985228;28;20285;-75
2023/01/21 00:24:21;;;;;;;56.30;24.73;;;;;;;;;;4974081;28;20274;-76
2023/01/21 00:26:47;;;;;;;67.83;24.87;;;;;;;;;;4974095;28;20447;-76
2023/01/21 00:29:13;;;;;;;65.87;26.97;;;;;;;;;;4973691;28;20324;-76
2023/01/21 00:31:40;;;;;;;71.63;26.60;;;;;;;;;;4990079;28;20820;-75
2023/01/21 00:34:06;;;;;;;61.83;25.77;;;;;;;;;;4995187;28;20656;-76
2023/01/21 00:36:32;;;;;;;63.47;25.90;;;;;;;;;;4990994;28;20277;-76
2023/01/21 00:39:00;;;;;;;58.60;25.63;;;;;;;;;;4989928;28;20308;-76
2023/01/21 00:41:26;;;;;;;65.77;26.43;;;;;;;;;;4993438;28;20026;-75
2023/01/21 00:43:52;;;;;;;54.33;24.83;;;;;;;;;;4994451;28;20948;-76
2023/01/21 00:46:18;;;;;;;65.90;25.53;;;;;;;;;;4990473;28;20371;-76
2023/01/21 00:48:45;;;;;;;51.87;24.30;;;;;;;;;;4977862;28;20281;-76
2023/01/21 00:51:13;;;;;;;63.93;26.67;;;;;;;;;;4973086;28;20281;-76
2023/01/21 00:53:43;;;;;;;65.77;26.23;;;;;;;;;;4971815;28;20285;-76
2023/01/21 00:56:11;;;;;;;62.13;24.93;;;;;;;;;;4977448;28;20277;-76
2023/01/21 00:58:37;;;;;;;53.93;23.83;;;;;;;;;;4972552;28;20355;-76
2023/01/21 01:01:07;;;;;;;48.73;23.77;;;;;;;;;;4977681;28;20273;-76
2023/01/21 01:03:34;;;;;;;53.20;24.23;;;;;;;;;;4990517;28;20300;-76
2023/01/21 01:06:26;;;;;;;58.37;24.70;;;;;;;;;;4974759;28;20293;-75
2023/01/21 01:08:56;;;;;;;52.63;24.30;;;;;;;;;;4995359;28;20289;-75
2023/01/21 01:11:24;;;;;;;57.57;24.33;;;;;;;;;;4972721;28;20053;-76
2023/01/21 01:13:50;;;;;;;53.30;24.40;;;;;;;;;;4976941;28;20385;-76
2023/01/21 01:16:16;;;;;;;54.13;24.90;;;;;;;;;;4977378;28;20368;-75
2023/01/21 01:18:43;;;;;;;56.43;24.57;;;;;;;;;;4987340;28;20026;-76
2023/01/21 01:21:13;;;;;;;46.87;23.57;;;;;;;;;;4977337;28;21838;-75
2023/01/21 01:23:39;;;;;;;54.13;24.10;;;;;;;;;;4979349;28;20340;-76
2023/01/21 01:26:06;;;;;;;54.30;22.57;;;;;;;;;;4973240;28;20273;-76
2023/01/21 01:28:32;;;;;;;58.77;23.73;;;;;;;;;;4977006;28;20285;-76
2023/01/21 01:30:58;;;;;;;46.83;22.40;;;;;;;;;;4988340;28;20300;-75
2023/01/21 01:33:25;;;;;;;51.40;23.20;;;;;;;;;;4989209;28;20317;-76
2023/01/21 01:35:51;;;;;;;49.20;21.27;;;;;;;;;;4973871;28;20277;-76
2023/01/21 01:38:19;;;;;;;50.47;21.80;;;;;;;;;;4993586;28;20281;-76
2023/01/21 01:40:45;;;;;;;43.77;21.77;;;;;;;;;;4989113;28;20289;-76
2023/01/21 01:43:17;;;;;;;39.83;19.50;;;;;;;;;;4989935;28;20665;-77
2023/01/21 01:45:43;;;;;;;47.53;22.05;;;;;;;;;;4971378;28;20277;-76
2023/01/21 01:48:12;;;;;;;48.70;21.70;;;;;;;;;;4971362;28;20058;-77
2023/01/21 01:50:39;;;;;;;46.63;22.93;;;;;;;;;;4989055;28;20274;-76
2023/01/21 01:53:06;;;;;;;52.93;23.27;;;;;;;;;;4971391;28;20278;-76
2023/01/21 01:55:37;;;;;;;52.70;21.93;;;;;;;;;;4990158;28;20353;-76
2023/01/21 01:58:06;;;;;;;53.00;22.27;;;;;;;;;;4976337;28;20312;-76
2023/01/21 02:00:35;;;;;;;47.80;20.57;;;;;;;;;;4976605;28;20575;-76
2023/01/21 02:05:49;;;;;;;53.27;21.87;;;;;;;;;;4993857;28;20352;-76
2023/01/21 02:08:15;;;;;;;53.80;20.70;;;;;;;;;;4992734;28;20282;-76
2023/01/21 02:10:43;;;;;;;50.23;21.50;;;;;;;;;;4995387;28;20296;-76
2023/01/21 02:13:09;;;;;;;53.73;21.20;;;;;;;;;;4993624;28;20451;-76
2023/01/21 02:15:40;;;;;;;46.10;20.43;;;;;;;;;;4988263;28;20312;-76
2023/01/21 02:18:15;;;;;;;51.53;21.13;;;;;;;;;;4993244;28;20336;-76
2023/01/21 02:21:03;;;;;;;49.10;20.87;;;;;;;;;;4995473;28;20340;-76
2023/01/21 02:23:29;;;;;;;50.00;20.03;;;;;;;;;;4988499;28;20312;-76
2023/01/21 02:25:55;;;;;;;46.67;20.93;;;;;;;;;;4990237;28;20273;-76
2023/01/21 02:28:26;;;;;;;46.20;21.00;;;;;;;;;;4971016;28;21520;-76
2023/01/21 02:30:52;;;;;;;54.20;22.70;;;;;;;;;;4991606;28;20316;-77
2023/01/21 02:33:27;;;;;;;52.77;23.10;;;;;;;;;;4972314;28;20293;-76
2023/01/21 02:36:07;;;;;;;49.87;21.63;;;;;;;;;;4976511;28;20022;-76
2023/01/21 02:38:48;;;;;;;53.53;22.10;;;;;;;;;;4987451;28;20290;-76
2023/01/21 02:41:14;;;;;;;41.93;20.70;;;;;;;;;;4973457;28;21041;-75
2023/01/21 02:43:43;;;;;;;43.27;20.90;;;;;;;;;;4976308;28;20299;-76
2023/01/21 02:46:15;;;;;;;54.33;22.83;;;;;;;;;;4991603;28;20045;-76
2023/01/21 02:48:48;;;;;;;49.80;21.77;;;;;;;;;;4975673;28;20282;-75
2023/01/21 02:51:14;;;;;;;46.28;21.38;;;;;;;;;;4971156;28;20145;-75
2023/01/21 02:53:40;;;;;;;49.90;20.83;;;;;;;;;;4975020;28;20172;-78
2023/01/21 02:56:08;;;;;;;51.00;21.30;;;;;;;;;;4987218;28;20665;-75
2023/01/21 02:58:36;;;;;;;47.17;20.23;;;;;;;;;;4992552;28;20169;-78
2023/01/21 03:01:22;;;;;;;53.90;21.57;;;;;;;;;;4975588;28;20381;-77
2023/01/21 03:04:06;;;;;;;42.97;20.47;;;;;;;;;;4986432;28;20323;-77
2023/01/21 03:06:40;;;;;;;47.17;20.77;;;;;;;;;;4969653;28;20281;-76
2023/01/21 03:09:16;;;;;;;52.90;22.37;;;;;;;;;;4971383;28;20603;-78
2023/01/21 03:11:44;;;;;;;55.83;23.07;;;;;;;;;;4975722;28;20285;-76
2023/01/21 03:17:14;;;;;;;61.67;25.23;;;;;;;;;;4993402;28;20917;-75
2023/01/21 03:19:42;;;;;;;57.33;22.17;;;;;;;;;;4989862;28;20274;-76
2023/01/21 03:22:13;;;;;;;59.93;23.50;;;;;;;;;;4990165;28;20281;-76
2023/01/21 03:24:42;;;;;;;59.93;22.63;;;;;;;;;;4974795;28;20662;-76
2023/01/21 03:27:09;;;;;;;52.70;22.10;;;;;;;;;;4992130;28;20396;-76
2023/01/21 03:29:35;;;;;;;54.03;22.47;;;;;;;;;;4968948;28;20277;-76
2023/01/21 03:32:04;;;;;;;47.00;21.07;;;;;;;;;;4974500;28;20795;-76
2023/01/21 03:34:32;;;;;;;48.17;20.13;;;;;;;;;;4986543;28;20395;-76
2023/01/21 03:37:01;;;;;;;48.20;21.63;;;;;;;;;;4987436;28;20273;-75
2023/01/21 03:39:46;;;;;;;50.80;20.80;;;;;;;;;;4991098;28;20291;-76
2023/01/21 03:42:13;;;;;;;47.73;20.10;;;;;;;;;;4975372;28;20438;-76
2023/01/21 03:44:39;;;;;;;56.47;21.50;;;;;;;;;;4975726;28;21922;-76
2023/01/21 03:47:17;;;;;;;54.70;22.87;;;;;;;;;;4974350;28;20808;-76
2023/01/21 03:49:46;;;;;;;58.80;22.03;;;;;;;;;;4986072;28;20274;-76
2023/01/21 03:52:13;;;;;;;59.77;23.63;;;;;;;;;;4991517;28;20281;-76
2023/01/21 03:54:42;;;;;;;57.30;23.40;;;;;;;;;;4988773;28;20650;-76
2023/01/21 03:57:08;;;;;;;56.93;22.07;;;;;;;;;;4987421;28;20339;-76
2023/01/21 03:59:34;;;;;;;54.10;22.27;;;;;;;;;;4974526;28;20289;-76
2023/01/21 04:02:00;;;;;;;59.40;22.60;;;;;;;;;;4974162;28;20044;-76
2023/01/21 04:04:26;;;;;;;55.40;23.53;;;;;;;;;;4973696;28;20030;-76
2023/01/21 04:06:52;;;;;;;52.43;22.17;;;;;;;;;;4986651;28;20097;-77
2023/01/21 04:09:18;;;;;;;50.10;23.20;;;;;;;;;;4990703;28;20045;-76
2023/01/21 04:11:44;;;;;;;58.30;23.63;;;;;;;;;;4986269;28;20046;-76
2023/01/21 04:14:10;;;;;;;50.70;21.67;;;;;;;;;;4991266;28;20991;-77
2023/01/21 04:16:36;;;;;;;49.20;21.13;;;;;;;;;;4969363;28;20069;-76
2023/01/21 04:19:02;;;;;;;52.33;22.83;;;;;;;;;;4990897;28;20298;-76
2023/01/21 04:21:29;;;;;;;56.83;23.63;;;;;;;;;;4987698;28;20479;-76
2023/01/21 04:23:55;;;;;;;52.00;23.60;;;;;;;;;;4986952;28;20285;-76
2023/01/21 04:26:21;;;;;;;59.37;25.57;;;;;;;;;;4993276;28;20291;-76
2023/01/21 04:28:47;;;;;;;56.07;24.20;;;;;;;;;;4991038;28;20336;-76
2023/01/21 04:31:13;;;;;;;60.23;24.53;;;;;;;;;;4989606;28;20681;-76
2023/01/21 04:33:39;;;;;;;51.73;23.67;;;;;;;;;;4969641;28;20203;-76
2023/01/21 04:36:05;;;;;;;63.63;26.20;;;;;;;;;;4971425;28;20273;-77
2023/01/21 04:38:31;;;;;;;49.27;22.17;;;;;;;;;;4973526;28;20277;-76
2023/01/21 04:40:57;;;;;;;53.27;23.33;;;;;;;;;;4970701;28;20297;-76
2023/01/21 04:43:23;;;;;;;50.73;23.37;;;;;;;;;;4989226;28;20277;-76
2023/01/21 04:45:49;;;;;;;50.53;23.00;;;;;;;;;;4971395;28;20332;-76
2023/01/21 04:48:15;;;;;;;49.83;21.13;;;;;;;;;;4968979;28;20277;-76
2023/01/21 04:50:41;;;;;;;49.33;22.07;;;;;;;;;;4989926;28;20285;-76
2023/01/21 04:53:07;;;;;;;44.77;21.33;;;;;;;;;;4990968;28;20611;-75
2023/01/21 04:55:33;;;;;;;51.20;21.77;;;;;;;;;;4990595;28;20034;-76
2023/01/21 04:57:59;;;;;;;52.00;22.40;;;;;;;;;;4969290;28;20027;-77
2023/01/21 05:00:25;;;;;;;54.63;23.40;;;;;;;;;;4984647;28;20282;-76
2023/01/21 05:02:51;;;;;;;50.33;22.57;;;;;;;;;;4986043;28;20030;-76
2023/01/21 05:05:18;;;;;;;47.90;21.77;;;;;;;;;;4969488;28;20457;-76
2023/01/21 05:07:44;;;;;;;52.33;22.43;;;;;;;;;;4990333;28;20277;-76
2023/01/21 05:10:15;;;;;;;48.07;21.13;;;;;;;;;;4973386;28;20336;-76
2023/01/21 05:12:43;;;;;;;47.13;20.83;;;;;;;;;;4984609;28;20285;-76
2023/01/21 05:15:09;;;;;;;43.93;22.30;;;;;;;;;;4972953;28;20730;-76
2023/01/21 05:17:35;;;;;;;51.23;22.17;;;;;;;;;;4993740;28;20277;-76
2023/01/21 05:20:01;;;;;;;51.43;22.37;;;;;;;;;;4976093;28;20274;-76
2023/01/21 05:22:27;;;;;;;46.40;22.67;;;;;;;;;;4976470;28;20030;-76
2023/01/21 05:24:56;;;;;;;44.73;20.67;;;;;;;;;;4971736;28;20737;-76
2023/01/21 05:27:22;;;;;;;50.20;20.70;;;;;;;;;;4988187;28;20049;-76
2023/01/21 05:29:48;;;;;;;45.90;21.37;;;;;;;;;;4991592;28;20270;-76
2023/01/21 05:32:14;;;;;;;53.03;22.07;;;;;;;;;;4976716;28;20038;-76
2023/01/21 05:34:40;;;;;;;54.20;21.57;;;;;;;;;;4977944;28;20030;-76
2023/01/21 05:37:06;;;;;;;50.33;23.17;;;;;;;;;;4989058;28;20027;-76
2023/01/21 05:39:32;;;;;;;54.03;22.63;;;;;;;;;;4972657;28;20030;-76
2023/01/21 05:41:58;;;;;;;53.17;22.53;;;;;;;;;;4976460;28;20366;-76
2023/01/21 05:44:23;;;;;;;46.83;21.57;;;;;;;;;;4973461;28;20039;-76
2023/01/21 05:46:49;;;;;;;50.57;22.20;;;;;;;;;;4975745;28;20030;-75
2023/01/21 05:49:16;;;;;;;49.07;20.87;;;;;;;;;;4972828;28;20034;-76
2023/01/21 05:51:42;;;;;;;48.60;21.88;;;;;;;;;;4975390;28;20786;-76
2023/01/21 05:54:08;;;;;;;42.57;19.77;;;;;;;;;;4975312;28;20027;-76
2023/01/21 05:56:34;;;;;;;49.77;22.27;;;;;;;;;;4992321;28;20336;-76
2023/01/21 05:59:00;;;;;;;51.07;21.33;;;;;;;;;;4993068;28;21963;-76
2023/01/21 06:01:26;;;;;;;42.70;20.33;;;;;;;;;;4992520;28;20286;-75
2023/01/21 06:03:51;;;;;;;44.27;21.10;;;;;;;;;;4975753;28;20281;-76
2023/01/21 06:06:17;;;;;;;42.77;20.37;;;;;;;;;;4975987;28;21977;-76
2023/01/21 06:08:43;;;;;;;51.33;20.50;;;;;;;;;;4984631;28;20022;-75
2023/01/21 06:11:09;;;;;;;45.27;20.17;;;;;;;;;;4992852;28;20373;-76
2023/01/21 06:13:35;;;;;;;47.33;21.40;;;;;;;;;;4992286;28;20294;-76
2023/01/21 06:16:02;;;;;;;51.83;21.50;;;;;;;;;;4987603;28;20733;-75
2023/01/21 06:18:27;;;;;;;59.37;22.77;;;;;;;;;;4975953;28;20289;-76
2023/01/21 06:20:53;;;;;;;49.60;22.47;;;;;;;;;;4971898;28;20277;-76
2023/01/21 06:23:22;;;;;;;51.27;24.20;;;;;;;;;;4986426;28;20277;-75
2023/01/21 06:25:48;;;;;;;51.47;25.08;;;;;;;;;;4975184;28;20273;-76
2023/01/21 06:28:14;;;;;;;49.13;22.87;;;;;;;;;;4975059;28;20127;-76
2023/01/21 06:30:42;;;;;;;53.17;23.17;;;;;;;;;;4992235;28;20038;-76
2023/01/21 06:33:08;;;;;;;54.13;21.23;;;;;;;;;;4993736;28;20042;-76
2023/01/21 06:35:35;;;;;;;50.93;22.20;;;;;;;;;;4975327;28;20026;-76
2023/01/21 06:38:01;;;;;;;44.42;21.15;;;;;;;;;;4972468;28;20357;-76
2023/01/21 06:40:30;;;;;;;49.23;21.17;;;;;;;;;;4976295;28;20117;-75
2023/01/21 06:42:58;;;;;;;46.78;20.52;;;;;;;;;;4992114;28;20038;-76
2023/01/21 06:45:24;;;;;;;51.75;20.50;;;;;;;;;;4974693;28;20104;-76
2023/01/21 06:47:50;;;;;;;48.33;20.40;;;;;;;;;;4967925;28;20030;-76
2023/01/21 06:50:17;;;;;;;57.47;20.87;;;;;;;;;;4992782;28;20285;-76
2023/01/21 06:52:44;;;;;;;44.65;20.35;;;;;;;;;;4991031;28;20030;-76
2023/01/21 06:55:10;;;;;;;44.05;19.17;;;;;;;;;;4977766;28;20026;-76
2023/01/21 06:57:37;;;;;;;45.72;20.65;;;;;;;;;;4974162;28;20030;-76
2023/01/21 07:00:04;;;;;;;44.65;20.15;;;;;;;;;;4985418;28;20363;-75
2023/01/21 07:02:32;;;;;;;43.97;19.60;;;;;;;;;;4991003;28;20072;-75
2023/01/21 07:04:58;;;;;;;48.78;21.65;;;;;;;;;;4990650;28;20286;-75
2023/01/21 07:07:24;;;;;;;53.10;21.63;;;;;;;;;;4974449;28;20034;-76
2023/01/21 07:09:50;;;;;;;43.05;21.23;;;;;;;;;;4974593;28;20034;-76
2023/01/21 07:12:18;;;;;;;47.70;21.37;;;;;;;;;;4986631;28;20045;-76
2023/01/21 07:14:46;;;;;;;44.92;19.85;;;;;;;;;;4990482;28;20026;-76
2023/01/21 07:17:12;;;;;;;45.15;19.60;;;;;;;;;;4987089;28;20023;-76
2023/01/21 07:19:38;;;;;;;53.03;20.97;;;;;;;;;;4971174;28;20026;-76
2023/01/21 07:22:07;;;;;;;54.63;20.38;;;;;;;;;;4974252;28;20270;-76
2023/01/21 07:24:36;;;;;;;45.78;19.95;;;;;;;;;;4969086;28;20073;-76
2023/01/21 07:27:04;;;;;;;43.67;19.05;;;;;;;;;;4968356;28;20034;-76
2023/01/21 07:29:30;;;;;;;46.55;20.45;;;;;;;;;;4985631;28;20125;-76
2023/01/21 07:31:56;;;;;;;41.93;19.13;;;;;;;;;;4974954;28;20109;-76
2023/01/21 07:34:22;;;;;;;49.67;21.47;;;;;;;;;;4974328;28;20365;-76
2023/01/21 07:36:50;;;;;;;55.27;22.67;;;;;;;;;;4971838;28;20026;-76
2023/01/21 07:39:16;;;;;;;59.10;24.13;;;;;;;;;;4994185;28;20265;-76
2023/01/21 07:41:42;;;;;;;67.30;25.67;;;;;;;;;;4975164;28;20037;-76
2023/01/21 07:44:08;;;;;;;60.87;26.27;;;;;;;;;;4973539;28;20049;-76
2023/01/21 07:46:34;;;;;;;71.93;27.07;;;;;;;;;;4984768;28;20293;-76
2023/01/21 07:49:03;;;;;;;64.47;26.27;;;;;;;;;;4990482;28;20289;-76
2023/01/21 07:51:29;;;;;;;69.27;25.20;;;;;;;;;;4986183;28;20278;-76
2023/01/21 07:53:57;;;;;;;73.30;27.43;;;;;;;;;;4971238;28;22106;-75
2023/01/21 07:56:25;;;;;;;85.00;30.57;;;;;;;;;;4968455;28;20455;-76
2023/01/21 07:58:51;;;;;;;78.40;28.20;;;;;;;;;;4973841;28;20273;-75
2023/01/21 08:01:17;;;;;;;76.40;31.47;;;;;;;;;;4970572;28;20270;-75
2023/01/21 08:03:43;;;;;;;71.53;27.93;;;;;;;;;;4970236;28;20292;-76
2023/01/21 08:06:09;;;;;;;74.93;30.67;;;;;;;;;;4973594;28;20153;-76
2023/01/21 08:08:35;;;;;;;69.60;28.77;;;;;;;;;;4986517;28;20434;-76
2023/01/21 08:11:01;;;;;;;74.30;29.70;;;;;;;;;;4976247;28;20289;-76
2023/01/21 08:13:27;;;;;;;74.20;27.37;;;;;;;;;;4974055;28;20037;-76
2023/01/21 08:15:54;;;;;;;66.50;28.13;;;;;;;;;;4971379;28;21746;-76
2023/01/21 08:18:21;;;;;;;66.13;27.13;;;;;;;;;;4973225;28;20038;-76
2023/01/21 08:20:47;;;;;;;63.60;27.27;;;;;;;;;;4988980;28;20285;-76
2023/01/21 08:23:13;;;;;;;79.73;30.50;;;;;;;;;;4968241;28;20332;-76
2023/01/21 08:25:40;;;;;;;70.27;30.67;;;;;;;;;;4986006;28;20296;-77
2023/01/21 08:28:06;;;;;;;82.93;33.43;;;;;;;;;;4968768;28;20293;-76
2023/01/21 08:30:32;;;;;;;78.47;32.97;;;;;;;;;;4969540;28;20304;-77
2023/01/21 08:33:00;;;;;;;79.57;33.47;;;;;;;;;;4970584;28;20762;-76
2023/01/21 08:35:26;;;;;;;78.73;31.03;;;;;;;;;;4973975;28;20273;-76
2023/01/21 08:37:56;;;;;;;74.90;31.83;;;;;;;;;;4973699;28;20312;-77
2023/01/21 08:40:24;;;;;;;64.07;29.70;;;;;;;;;;4991155;28;20034;-76
2023/01/21 08:42:50;;;;;;;75.93;35.13;;;;;;;;;;4968068;28;20420;-76
2023/01/21 08:45:17;;;;;;;76.97;34.00;;;;;;;;;;4973417;28;20387;-77
2023/01/21 08:47:43;;;;;;;71.03;32.20;;;;;;;;;;4973719;28;20336;-76
2023/01/21 08:50:11;;;;;;;74.43;33.70;;;;;;;;;;4991559;28;20304;-76
2023/01/21 08:52:37;;;;;;;74.73;31.90;;;;;;;;;;4989113;28;20749;-76
2023/01/21 08:55:03;;;;;;;69.90;31.77;;;;;;;;;;4976788;28;20309;-77
2023/01/21 08:57:29;;;;;;;74.40;33.63;;;;;;;;;;4977594;28;20293;-77
2023/01/21 08:59:57;;;;;;;74.83;35.17;;;;;;;;;;4977044;28;20312;-77
2023/01/21 09:02:23;;;;;;;82.43;35.97;;;;;;;;;;4976814;28;20510;-76
2023/01/21 09:04:51;;;;;;;84.57;36.27;;;;;;;;;;4993161;28;20388;-77
2023/01/21 09:07:17;;;;;;;75.37;37.00;;;;;;;;;;4973564;28;20085;-77
2023/01/21 09:09:43;;;;;;;62.13;31.03;;;;;;;;;;4993594;28;20281;-76
2023/01/21 09:12:11;;;;;;;68.90;33.17;;;;;;;;;;4978228;28;20300;-76
2023/01/21 09:14:40;;;;;;;69.77;31.57;;;;;;;;;;4976960;28;20034;-76
2023/01/21 09:17:06;;;;;;;60.07;25.83;;;;;;;;;;4971331;28;20273;-76
2023/01/21 09:19:32;;;;;;;65.23;32.07;;;;;;;;;;4994310;28;20273;-77
2023/01/21 09:21:58;;;;;;;73.53;31.73;;;;;;;;;;4987368;28;20304;-77
2023/01/21 09:24:24;;;;;;;65.43;32.07;;;;;;;;;;4972806;28;20041;-76
2023/01/21 09:26:52;;;;;;;63.77;30.67;;;;;;;;;;4988794;28;20316;-76
2023/01/21 09:29:18;;;;;;;66.57;33.47;;;;;;;;;;4989503;28;20022;-77
2023/01/21 09:31:44;;;;;;;62.93;30.90;;;;;;;;;;4993834;28;20292;-76
2023/01/21 09:34:10;;;;;;;53.80;29.27;;;;;;;;;;4973726;28;20046;-75
2023/01/21 09:36:37;;;;;;;62.73;31.13;;;;;;;;;;4992898;28;20092;-77
2023/01/21 09:39:06;;;;;;;61.67;30.10;;;;;;;;;;4989072;28;20270;-77
2023/01/21 09:41:35;;;;;;;53.20;27.53;;;;;;;;;;4989337;28;20278;-77
2023/01/21 09:44:01;;;;;;;60.37;30.60;;;;;;;;;;4976649;28;20341;-77
2023/01/21 09:46:27;;;;;;;50.37;26.73;;;;;;;;;;4989788;28;20435;-76
2023/01/21 09:48:53;;;;;;;56.53;27.97;;;;;;;;;;4971490;28;20392;-74
2023/01/21 09:51:23;;;;;;;59.47;29.23;;;;;;;;;;4993518;28;20794;-76
2023/01/21 09:53:51;;;;;;;82.00;31.60;;;;;;;;;;4993442;28;20297;-77
2023/01/21 09:56:42;;;;;;;63.00;32.17;;;;;;;;;;4991820;28;20328;-77
2023/01/21 09:59:21;;;;;;;51.70;24.40;;;;;;;;;;4988492;28;20364;-77
2023/01/21 10:01:48;;;;;;;48.43;24.40;;;;;;;;;;4986593;28;20270;-77
2023/01/21 10:04:14;;;;;;;61.07;25.97;;;;;;;;;;4972069;28;20281;-77
2023/01/21 10:06:44;;;;;;;58.33;29.83;;;;;;;;;;4991678;28;20770;-76
2023/01/21 10:09:23;;;;;;;49.73;25.17;;;;;;;;;;4994023;28;20049;-77
2023/01/21 10:11:55;;;;;;;45.20;22.03;;;;;;;;;;4987346;28;20579;-77
2023/01/21 10:14:36;;;;;;;53.15;27.20;;;;;;;;;;4992578;28;20293;-75
2023/01/21 10:17:06;;;;;;;52.60;26.00;;;;;;;;;;4993192;28;20084;-77
2023/01/21 10:19:41;;;;;;;56.80;28.73;;;;;;;;;;4971721;28;20269;-76
2023/01/21 10:22:27;;;;;;;58.13;25.67;;;;;;;;;;4989261;28;20273;-76
2023/01/21 10:24:55;;;;;;;59.77;26.53;;;;;;;;;;4987565;28;20376;-76
2023/01/21 10:27:22;;;;;;;56.67;29.33;;;;;;;;;;4993698;28;20288;-77
2023/01/21 10:29:51;;;;;;;56.63;27.83;;;;;;;;;;4987601;28;20269;-77
2023/01/21 10:32:22;;;;;;;54.87;27.30;;;;;;;;;;4986060;28;20274;-77
2023/01/21 10:34:52;;;;;;;48.30;23.87;;;;;;;;;;4988706;28;20340;-77
2023/01/21 10:37:40;;;;;;;49.33;23.10;;;;;;;;;;4988160;28;20324;-77
2023/01/21 10:40:06;;;;;;;55.70;29.03;;;;;;;;;;4975849;28;20281;-77
2023/01/21 10:42:51;;;;;;;50.03;24.87;;;;;;;;;;4972229;28;20308;-77
2023/01/21 10:45:24;;;;;;;50.17;25.53;;;;;;;;;;4985694;28;20052;-76
2023/01/21 10:47:52;;;;;;;53.80;25.92;;;;;;;;;;4992533;28;20340;-76
2023/01/21 10:50:26;;;;;;;51.40;27.60;;;;;;;;;;4971340;28;20045;-77
2023/01/21 10:52:56;;;;;;;53.77;28.07;;;;;;;;;;4988580;28;20300;-75
2023/01/21 10:55:33;;;;;;;41.83;21.40;;;;;;;;;;4993422;28;20269;-76
2023/01/21 10:58:17;;;;;;;41.33;20.27;;;;;;;;;;4989126;28;20278;-76
2023/01/21 11:00:46;;;;;;;44.13;22.17;;;;;;;;;;4992124;28;21254;-75
2023/01/21 11:03:15;;;;;;;37.07;20.93;;;;;;;;;;4988186;28;20583;-77
2023/01/21 11:05:42;;;;;;;39.17;20.43;;;;;;;;;;4974014;28;20344;-75
2023/01/21 11:08:13;;;;;;;42.87;19.60;;;;;;;;;;4972224;28;20310;-75
2023/01/21 11:10:41;;;;;;;31.90;16.93;;;;;;;;;;4992805;28;20750;-77
2023/01/21 11:13:10;;;;;;;32.77;17.57;;;;;;;;;;4993668;28;20297;-76
2023/01/21 11:15:37;;;;;;;34.17;17.93;;;;;;;;;;4970068;28;20498;-77
2023/01/21 11:18:23;;;;;;;37.07;19.13;;;;;;;;;;4949036;28;20282;-75
2023/01/21 11:20:49;;;;;;;28.27;16.77;;;;;;;;;;4970489;28;20275;-77
2023/01/21 11:23:26;;;;;;;29.67;18.10;;;;;;;;;;4957187;28;20372;-75
2023/01/21 11:26:00;;;;;;;32.57;17.43;;;;;;;;;;4957144;28;20288;-75
2023/01/21 11:28:29;;;;;;;28.07;16.67;;;;;;;;;;4969792;28;20342;-76
2023/01/21 11:31:14;;;;;;;32.73;16.70;;;;;;;;;;4966837;28;20274;-76
2023/01/21 11:33:43;;;;;;;28.73;16.83;;;;;;;;;;4952046;28;20289;-76
2023/01/21 11:36:16;;;;;;;26.87;16.53;;;;;;;;;;4955543;28;20274;-76
2023/01/21 11:38:43;;;;;;;25.83;15.03;;;;;;;;;;4950642;28;20302;-76
2023/01/21 11:41:11;;;;;;;30.87;16.03;;;;;;;;;;4951868;28;20373;-76
2023/01/21 11:43:41;;;;;;;33.90;16.87;;;;;;;;;;4971687;28;20282;-77
2023/01/21 11:46:21;;;;;;;28.27;16.50;;;;;;;;;;4958594;28;20273;-76
2023/01/21 11:48:47;;;;;;;29.00;16.17;;;;;;;;;;4986573;28;20672;-76
2023/01/21 11:51:13;;;;;;;28.87;15.70;;;;;;;;;;4970885;28;20317;-76
2023/01/21 11:53:42;;;;;;;32.07;16.30;;;;;;;;;;4969329;28;20053;-75
2023/01/21 11:56:09;;;;;;;31.47;15.73;;;;;;;;;;4992448;28;20821;-79
2023/01/21 11:58:36;;;;;;;29.03;16.13;;;;;;;;;;4971573;28;20340;-76
2023/01/21 12:01:03;;;;;;;30.13;16.23;;;;;;;;;;4974099;28;20287;-75
2023/01/21 12:03:32;;;;;;;30.07;17.53;;;;;;;;;;4971837;28;20280;-76
2023/01/21 12:05:58;;;;;;;31.93;17.40;;;;;;;;;;4984507;28;20365;-76
2023/01/21 12:08:33;;;;;;;27.40;15.00;;;;;;;;;;4974399;28;20916;-76
2023/01/21 12:11:00;;;;;;;30.50;15.80;;;;;;;;;;4992405;28;20758;-76
2023/01/21 12:13:36;;;;;;;29.67;16.60;;;;;;;;;;4978032;28;20293;-76
2023/01/21 12:16:22;;;;;;;29.00;14.70;;;;;;;;;;4992243;28;20273;-76
2023/01/21 12:18:51;;;;;;;25.17;13.37;;;;;;;;;;4989449;28;20266;-77
2023/01/21 12:21:36;;;;;;;24.67;14.23;;;;;;;;;;4992250;28;20273;-77
2023/01/21 12:24:24;;;;;;;24.27;11.97;;;;;;;;;;4991852;28;20277;-77
2023/01/21 12:26:56;;;;;;;26.80;15.10;;;;;;;;;;4990347;28;20273;-77
2023/01/21 12:29:28;;;;;;;27.50;14.37;;;;;;;;;;4995275;28;20292;-77
2023/01/21 12:31:54;;;;;;;26.50;14.82;;;;;;;;;;4989231;28;20309;-77
2023/01/21 12:34:23;;;;;;;23.33;12.53;;;;;;;;;;4979259;28;20837;-77
2023/01/21 12:36:59;;;;;;;22.97;11.03;;;;;;;;;;4989655;28;20109;-77
2023/01/21 12:39:28;;;;;;;20.47;10.97;;;;;;;;;;4991374;28;20336;-77
2023/01/21 12:42:03;;;;;;;21.13;12.43;;;;;;;;;;4988064;28;20756;-76
2023/01/21 12:44:48;;;;;;;22.87;12.60;;;;;;;;;;4989551;28;20280;-76
2023/01/21 12:47:20;;;;;;;19.23;11.30;;;;;;;;;;4977279;28;20281;-77
2023/01/21 12:50:01;;;;;;;19.45;10.05;;;;;;;;;;4981869;28;20270;-77
2023/01/21 12:52:39;;;;;;;19.57;10.97;;;;;;;;;;4989650;28;20532;-76
2023/01/21 12:55:08;;;;;;;21.40;12.10;;;;;;;;;;4978851;28;20277;-77
2023/01/21 12:57:54;;;;;;;12.77;7.60;;;;;;;;;;4994083;28;20290;-77
2023/01/21 13:00:32;;;;;;;23.70;13.00;;;;;;;;;;4995740;28;20288;-76
2023/01/21 13:03:11;;;;;;;17.30;10.50;;;;;;;;;;4977272;28;20281;-77
2023/01/21 13:05:58;;;;;;;20.73;10.53;;;;;;;;;;4996198;28;20372;-77
2023/01/21 13:08:35;;;;;;;20.73;11.93;;;;;;;;;;4978845;28;20308;-76
2023/01/21 13:11:10;;;;;;;15.27;7.13;;;;;;;;;;4978566;28;20818;-76
2023/01/21 13:13:44;;;;;;;21.00;12.10;;;;;;;;;;4987753;28;20293;-78
2023/01/21 13:16:10;;;;;;;17.20;9.17;;;;;;;;;;4992398;28;20269;-77
2023/01/21 13:18:41;;;;;;;19.40;11.00;;;;;;;;;;4995715;28;20289;-77
2023/01/21 13:21:13;;;;;;;18.57;10.03;;;;;;;;;;4995344;28;20284;-77
2023/01/21 13:23:48;;;;;;;17.40;10.88;;;;;;;;;;4997662;28;20296;-76
2023/01/21 13:26:14;;;;;;;20.57;10.73;;;;;;;;;;4988660;28;20034;-76
2023/01/21 13:29:06;;;;;;;19.80;10.80;;;;;;;;;;4981255;28;20380;-77
2023/01/21 13:31:38;;;;;;;16.58;9.00;;;;;;;;;;4976598;28;20121;-78
2023/01/21 13:34:23;;;;;;;19.90;10.18;;;;;;;;;;4979044;28;20046;-77
2023/01/21 13:36:49;;;;;;;19.00;10.87;;;;;;;;;;4990966;28;20034;-78
2023/01/21 13:39:33;;;;;;;23.53;12.83;;;;;;;;;;4993559;28;20286;-78
2023/01/21 13:42:21;;;;;;;16.70;10.30;;;;;;;;;;4991278;28;20073;-76
2023/01/21 13:44:47;;;;;;;21.60;11.03;;;;;;;;;;4996449;28;20602;-77
2023/01/21 13:47:16;;;;;;;29.13;13.63;;;;;;;;;;4977738;28;22126;-77
2023/01/21 13:49:48;;;;;;;24.00;13.27;;;;;;;;;;4972749;28;20048;-77
2023/01/21 13:52:14;;;;;;;22.00;10.27;;;;;;;;;;4977830;28;20269;-78
2023/01/21 13:55:01;;;;;;;26.43;13.83;;;;;;;;;;4994119;28;20096;-78
2023/01/21 13:57:27;;;;;;;27.37;13.47;;;;;;;;;;4993731;28;20462;-78
2023/01/21 13:59:58;;;;;;;27.53;14.30;;;;;;;;;;4977745;28;20277;-78
2023/01/21 14:02:42;;;;;;;19.53;10.73;;;;;;;;;;4987452;28;20026;-78
2023/01/21 14:05:07;;;;;;;;;;;;;;;;;;4988443;28;20340;-77
2023/01/21 14:07:37;;;;;;;25.50;14.10;;;;;;;;;;4991081;28;20444;-76
2023/01/21 14:10:24;;;;;;;31.07;14.60;;;;;;;;;;4989901;28;20030;-77
2023/01/21 14:13:13;;;;;;;22.70;12.40;;;;;;;;;;4998196;28;20304;-77
2023/01/21 14:15:39;;;;;;;26.70;14.67;;;;;;;;;;4993068;28;20347;-77
2023/01/21 14:18:05;;;;;;;23.43;12.17;;;;;;;;;;4991345;28;21895;-77
2023/01/21 14:20:30;;;;;;;25.00;12.53;;;;;;;;;;4991845;28;20034;-76
2023/01/21 14:22:59;;;;;;;24.07;12.63;;;;;;;;;;4985956;28;20376;-77
2023/01/21 14:25:35;;;;;;;22.30;12.77;;;;;;;;;;4988093;28;20030;-77
2023/01/21 14:28:04;;;;;;;25.30;12.77;;;;;;;;;;4977318;28;20269;-77
2023/01/21 14:30:39;;;;;;;27.57;14.27;;;;;;;;;;4977172;28;20348;-76
2023/01/21 14:33:11;;;;;;;27.50;13.37;;;;;;;;;;4993470;28;20324;-76
2023/01/21 14:35:42;;;;;;;23.83;13.10;;;;;;;;;;4993526;28;20281;-77
2023/01/21 14:38:08;;;;;;;27.43;13.17;;;;;;;;;;4989951;28;20037;-76